Time;durP1;ratioP1;P1;durP2;ratioP2;P2;SDS_P1;SDS_P2;PMS_P1;PMS_P2;Temp;Humidity;BMP_temperature;BMP_pressure;BME280_temperature;BME280_humidity;BME280_pressure;Samples;Min_cycle;Max_cycle;Signal;HPM_P1;HPM_P2
2022/11/25 00:00:09;;;;;;;11.75;3.90;;;;;;;4.24;86.69;98644.72;5024369;28;20033;-80
2022/11/25 00:02:34;;;;;;;8.85;3.40;;;;;;;4.09;86.64;98638.91;5023059;28;20594;-80
2022/11/25 00:05:00;;;;;;;13.63;4.05;;;;;;;4.29;86.94;98630.88;5006872;28;20564;-80
2022/11/25 00:07:25;;;;;;;12.82;4.05;;;;;;;4.10;86.12;98629.16;5024513;28;20038;-80
2022/11/25 00:09:50;;;;;;;8.98;3.55;;;;;;;4.35;85.67;98633.47;5003241;28;20044;-81
2022/11/25 00:12:16;;;;;;;9.63;4.28;;;;;;;4.41;86.55;98634.47;5011449;28;20374;-80
2022/11/25 00:14:43;;;;;;;8.45;3.42;;;;;;;4.28;85.57;98631.91;5003544;28;20056;-79
2022/11/25 00:17:08;;;;;;;16.58;5.78;;;;;;;4.34;86.44;98637.16;5022134;28;20108;-80
2022/11/25 00:19:33;;;;;;;13.20;3.63;;;;;;;4.29;85.77;98623.75;5023166;28;20038;-80
2022/11/25 00:21:59;;;;;;;15.32;4.07;;;;;;;4.27;85.66;98625.00;5019299;28;20117;-80
2022/11/25 00:24:24;;;;;;;13.38;4.90;;;;;;;4.09;86.79;98627.53;5019240;28;20464;-79
2022/11/25 00:26:50;;;;;;;10.25;3.80;;;;;;;4.25;87.15;98633.13;5016092;28;20057;-79
2022/11/25 00:29:16;;;;;;;7.07;3.47;;;;;;;4.31;85.51;98618.25;5013071;28;20651;-79
2022/11/25 00:31:42;;;;;;;10.63;3.53;;;;;;;4.27;86.18;98603.84;5009168;28;20045;-80
2022/11/25 00:34:12;;;;;;;10.15;3.67;;;;;;;4.31;85.66;98608.50;5011969;28;20059;-80
2022/11/25 00:36:37;;;;;;;9.90;3.70;;;;;;;4.38;84.91;98606.63;5016917;28;20029;-80
2022/11/25 00:39:06;;;;;;;13.45;3.50;;;;;;;4.41;85.60;98632.59;5024537;28;20200;-80
2022/11/25 00:44:39;;;;;;;6.50;2.97;;;;;;;4.20;84.98;98611.84;5026137;28;20072;-80
2022/11/25 00:47:17;;;;;;;7.00;3.17;;;;;;;4.33;85.20;98624.94;5018692;28;20037;-80
2022/11/25 00:49:45;;;;;;;10.40;3.53;;;;;;;4.22;85.26;98616.88;5018931;28;20035;-80
2022/11/25 00:52:14;;;;;;;12.98;4.10;;;;;;;4.28;85.68;98624.78;5022323;28;20800;-80
2022/11/25 00:54:40;;;;;;;10.48;3.05;;;;;;;4.03;86.02;98609.91;5008161;28;20036;-80
2022/11/25 00:57:06;;;;;;;8.60;3.40;;;;;;;4.19;86.19;98627.91;5021111;28;20041;-80
2022/11/25 00:59:31;;;;;;;10.02;4.03;;;;;;;4.18;85.61;98632.38;5016934;28;20025;-80
2022/11/25 01:01:56;;;;;;;9.98;4.35;;;;;;;4.14;86.41;98635.63;5023355;28;20173;-80
2022/11/25 01:04:22;;;;;;;15.85;4.80;;;;;;;3.98;86.03;98610.53;5011458;28;20079;-80
2022/11/25 01:06:47;;;;;;;10.77;3.63;;;;;;;4.08;86.67;98621.47;5004101;28;20033;-80
2022/11/25 01:09:13;;;;;;;8.05;3.72;;;;;;;4.01;87.47;98636.53;5027883;28;20483;-80
2022/11/25 01:11:39;;;;;;;13.68;4.47;;;;;;;3.88;87.23;98612.84;5008482;28;20033;-80
2022/11/25 01:14:04;;;;;;;14.05;3.67;;;;;;;3.93;87.04;98634.16;5022906;28;20038;-79
2022/11/25 01:16:30;;;;;;;11.75;3.47;;;;;;;4.18;86.50;98623.63;5026488;28;20370;-80
2022/11/25 01:19:00;;;;;;;8.27;3.20;;;;;;;4.21;86.15;98628.50;5029204;28;20044;-80
2022/11/25 01:21:28;;;;;;;9.50;4.32;;;;;;;4.25;85.45;98621.75;5021033;28;20037;-79
2022/11/25 01:23:54;;;;;;;9.75;3.97;;;;;;;4.22;85.73;98623.00;4992148;28;20649;-80
2022/11/25 01:26:22;;;;;;;14.25;3.70;;;;;;;4.22;85.64;98632.75;5026382;28;20064;-79
2022/11/25 01:28:51;;;;;;;9.25;3.35;;;;;;;4.24;85.84;98628.06;5028797;28;20517;-80
2022/11/25 01:31:22;;;;;;;7.38;3.17;;;;;;;4.14;86.40;98631.19;5026626;28;20382;-79
2022/11/25 01:33:56;;;;;;;11.63;4.25;;;;;;;4.11;85.82;98621.03;5025458;28;20086;-80
2022/11/25 01:36:22;;;;;;;13.18;4.05;;;;;;;4.07;86.14;98617.19;5020623;28;20033;-80
2022/11/25 01:38:50;;;;;;;15.55;3.17;;;;;;;4.06;86.40;98617.41;5022435;28;20030;-80
2022/11/25 01:41:16;;;;;;;7.88;3.60;;;;;;;4.10;85.65;98623.88;5021389;28;20049;-80
2022/11/25 01:43:41;;;;;;;9.20;3.45;;;;;;;3.92;86.94;98629.88;5001538;28;20029;-80
2022/11/25 01:46:16;;;;;;;10.38;3.97;;;;;;;4.18;86.13;98635.00;4983667;28;20026;-79
2022/11/25 01:48:54;;;;;;;9.75;3.90;;;;;;;4.35;85.90;98643.22;5012557;28;20040;-80
2022/11/25 01:51:27;;;;;;;9.65;3.55;;;;;;;4.28;85.79;98630.06;5016930;28;20037;-80
2022/11/25 01:54:01;;;;;;;8.43;3.42;;;;;;;4.13;85.71;98616.34;5022617;28;20029;-79
2022/11/25 01:56:32;;;;;;;8.23;3.53;;;;;;;4.04;86.14;98606.25;5013008;28;20041;-80
2022/11/25 01:58:58;;;;;;;6.63;3.53;;;;;;;4.16;85.97;98620.38;5006853;28;20033;-80
2022/11/25 02:01:23;;;;;;;9.38;3.80;;;;;;;4.09;85.59;98609.06;5017718;28;20048;-80
2022/11/25 02:03:53;;;;;;;11.13;4.47;;;;;;;4.20;86.13;98625.03;5018485;28;20063;-80
2022/11/25 02:06:31;;;;;;;15.05;3.33;;;;;;;4.23;85.79;98624.63;5015208;28;20061;-80
2022/11/25 02:09:06;;;;;;;6.30;4.07;;;;;;;4.16;85.83;98626.50;5021559;28;20095;-79
2022/11/25 02:11:35;;;;;;;12.30;3.47;;;;;;;3.95;85.87;98607.53;5002790;28;20029;-80
2022/11/25 02:14:01;;;;;;;11.27;3.25;;;;;;;3.90;86.65;98608.16;5021473;28;20156;-80
2022/11/25 02:16:27;;;;;;;13.77;3.83;;;;;;;4.13;85.60;98623.47;5016261;28;20040;-80
2022/11/25 02:18:53;;;;;;;11.02;3.45;;;;;;;4.03;85.77;98629.22;5015512;28;20824;-80
2022/11/25 02:21:31;;;;;;;12.23;3.85;;;;;;;3.94;86.32;98604.06;4998947;28;20025;-80
2022/11/25 02:24:06;;;;;;;8.15;3.67;;;;;;;4.24;85.28;98620.13;5011060;28;20538;-79
2022/11/25 02:26:32;;;;;;;8.45;4.28;;;;;;;4.23;85.58;98619.34;5011143;28;20106;-79
2022/11/25 02:28:57;;;;;;;7.82;3.33;;;;;;;4.04;85.66;98620.25;5012604;28;20041;-80
2022/11/25 02:31:23;;;;;;;7.80;4.50;;;;;;;4.12;85.61;98614.75;5014543;28;21839;-80
2022/11/25 02:33:48;;;;;;;13.52;4.20;;;;;;;4.03;85.40;98597.53;5015007;28;20440;-80
2022/11/25 02:36:19;;;;;;;10.63;3.35;;;;;;;3.86;86.62;98577.94;5010654;28;20033;-80
2022/11/25 02:38:53;;;;;;;9.43;3.38;;;;;;;3.94;85.93;98592.69;5017270;28;20022;-80
2022/11/25 02:41:24;;;;;;;10.05;3.50;;;;;;;4.07;85.70;98603.19;5016073;28;20040;-81
2022/11/25 02:43:50;;;;;;;8.95;3.28;;;;;;;3.86;85.78;98582.41;5018110;28;20045;-80
2022/11/25 02:46:18;;;;;;;9.10;4.53;;;;;;;4.16;85.64;98608.00;5016871;28;20037;-79
2022/11/25 02:48:43;;;;;;;7.95;3.58;;;;;;;4.01;85.30;98585.56;5015483;28;20026;-79
2022/11/25 02:51:12;;;;;;;15.68;4.70;;;;;;;4.12;86.02;98601.53;5009276;28;20037;-80
2022/11/25 02:53:38;;;;;;;11.15;4.03;;;;;;;3.98;85.49;98583.31;5012361;28;20180;-80
2022/11/25 02:56:03;;;;;;;13.68;4.10;;;;;;;4.14;85.58;98602.13;5013220;28;20489;-80
2022/11/25 02:58:29;;;;;;;17.33;4.95;;;;;;;3.82;86.55;98576.75;5017270;28;20478;-80
2022/11/25 03:00:54;;;;;;;9.23;3.75;;;;;;;3.98;86.41;98599.16;5020490;28;20121;-80
2022/11/25 03:03:20;;;;;;;9.07;4.53;;;;;;;3.87;86.08;98576.91;5017735;28;20065;-80
2022/11/25 03:05:45;;;;;;;12.27;4.85;;;;;;;4.05;86.21;98589.38;5021727;28;20028;-80
2022/11/25 03:08:11;;;;;;;9.07;4.00;;;;;;;3.83;86.18;98585.44;5022663;28;20075;-80
2022/11/25 03:10:37;;;;;;;8.35;3.90;;;;;;;4.08;85.01;98594.25;5024970;28;20060;-80
2022/11/25 03:13:04;;;;;;;11.00;4.00;;;;;;;3.93;84.80;98544.38;5026459;28;20078;-80
2022/11/25 03:15:29;;;;;;;9.98;3.80;;;;;;;3.89;85.63;98561.66;5024426;28;20057;-79
2022/11/25 03:17:55;;;;;;;9.43;3.75;;;;;;;4.07;85.55;98589.97;5023326;28;20064;-80
2022/11/25 03:20:21;;;;;;;8.68;3.47;;;;;;;3.97;85.40;98571.97;5024358;28;20022;-80
2022/11/25 03:22:47;;;;;;;8.38;4.75;;;;;;;4.06;85.20;98580.44;5026500;28;20397;-80
2022/11/25 03:25:14;;;;;;;9.95;3.80;;;;;;;3.88;85.89;98567.16;5022320;28;20029;-79
2022/11/25 03:27:40;;;;;;;12.63;4.85;;;;;;;3.99;85.30;98584.97;5025484;28;20069;-80
2022/11/25 03:30:13;;;;;;;6.68;3.25;;;;;;;4.25;85.07;98590.88;5025494;28;20040;-79
2022/11/25 03:32:38;;;;;;;12.25;4.30;;;;;;;3.92;84.60;98555.94;5023465;28;20025;-79
2022/11/25 03:35:04;;;;;;;7.45;3.35;;;;;;;3.96;85.38;98580.91;5006167;28;20041;-80
2022/11/25 03:37:30;;;;;;;6.95;3.83;;;;;;;3.93;85.20;98580.53;5023291;28;20041;-80
2022/11/25 03:39:55;;;;;;;13.27;4.30;;;;;;;3.91;85.17;98575.44;5022061;28;20021;-79
2022/11/25 03:42:21;;;;;;;5.93;3.72;;;;;;;3.90;85.30;98559.81;5019959;28;20029;-80
2022/11/25 03:44:46;;;;;;;8.32;3.22;;;;;;;3.77;85.96;98558.91;5017946;28;20029;-79
2022/11/25 03:47:11;;;;;;;7.13;3.22;;;;;;;3.85;85.23;98578.94;5015932;28;20481;-79
2022/11/25 03:49:37;;;;;;;9.52;4.13;;;;;;;3.78;85.56;98563.13;4987294;28;20033;-79
2022/11/25 03:52:02;;;;;;;9.35;4.28;;;;;;;3.92;85.26;98563.06;5019650;28;20137;-80
2022/11/25 03:54:28;;;;;;;10.68;3.67;;;;;;;3.87;85.16;98563.69;5017810;28;20036;-80
2022/11/25 03:56:53;;;;;;;5.97;3.33;;;;;;;3.87;85.38;98557.63;5023016;28;20068;-80
2022/11/25 03:59:19;;;;;;;12.20;3.47;;;;;;;3.90;85.01;98573.03;4989980;28;20034;-79
2022/11/25 04:01:44;;;;;;;7.10;3.95;;;;;;;3.88;85.13;98573.25;5023002;28;20065;-80
2022/11/25 04:04:10;;;;;;;8.57;3.97;;;;;;;3.80;85.64;98587.50;5018569;28;20033;-79
2022/11/25 04:06:38;;;;;;;11.02;3.42;;;;;;;3.83;85.61;98590.72;5004681;28;20450;-80
2022/11/25 04:09:03;;;;;;;11.77;4.47;;;;;;;3.78;85.61;98570.25;5019992;28;20033;-79
2022/11/25 04:14:13;;;;;;;9.15;4.10;;;;;;;3.38;88.57;98595.22;5009645;28;20122;-80
2022/11/25 04:16:38;;;;;;;19.50;3.65;;;;;;;3.95;85.65;98586.41;5015942;28;20029;-80
2022/11/25 04:19:04;;;;;;;11.20;4.03;;;;;;;3.71;85.28;98580.03;5023186;28;20072;-79
2022/11/25 04:21:29;;;;;;;17.75;4.50;;;;;;;3.40;86.71;98567.59;5023443;28;20048;-79
2022/11/25 04:23:55;;;;;;;10.02;4.25;;;;;;;3.79;86.18;98577.16;5019593;28;20021;-80
2022/11/25 04:26:20;;;;;;;5.88;3.83;;;;;;;3.75;85.12;98587.34;5005875;28;20061;-80
2022/11/25 04:28:45;;;;;;;8.00;3.80;;;;;;;3.84;85.83;98597.63;5025274;28;20032;-80
2022/11/25 04:31:11;;;;;;;10.07;3.85;;;;;;;3.80;85.36;98573.47;5026091;28;20045;-80
2022/11/25 04:33:36;;;;;;;15.52;5.22;;;;;;;3.77;85.45;98576.56;5006913;28;20522;-80
2022/11/25 04:36:02;;;;;;;11.88;3.50;;;;;;;3.83;85.71;98591.53;5007855;28;20029;-80
2022/11/25 04:38:28;;;;;;;13.48;3.65;;;;;;;3.67;85.57;98573.53;5021169;28;20414;-80
2022/11/25 04:40:53;;;;;;;11.13;4.03;;;;;;;3.68;85.11;98572.53;5000641;28;20042;-80
2022/11/25 04:43:19;;;;;;;8.73;3.95;;;;;;;3.56;85.41;98575.03;5024014;28;20109;-80
2022/11/25 04:45:46;;;;;;;9.77;3.78;;;;;;;3.60;85.35;98586.78;5021733;28;20393;-80
2022/11/25 04:48:11;;;;;;;9.30;3.20;;;;;;;3.74;84.80;98598.06;5019907;28;20030;-80
2022/11/25 04:50:38;;;;;;;14.05;4.00;;;;;;;3.60;85.43;98586.00;5002677;28;20064;-80
2022/11/25 04:53:03;;;;;;;8.35;3.53;;;;;;;3.67;85.39;98600.75;5009396;28;20038;-80
2022/11/25 04:55:29;;;;;;;12.30;3.40;;;;;;;3.64;84.80;98603.00;5018352;28;20393;-80
2022/11/25 04:57:55;;;;;;;8.82;3.90;;;;;;;3.73;85.85;98607.81;5015125;28;20041;-80
2022/11/25 05:00:20;;;;;;;10.32;3.88;;;;;;;3.86;84.34;98606.16;5016659;28;20163;-80
2022/11/25 05:02:46;;;;;;;11.30;4.18;;;;;;;3.91;84.11;98599.19;5015669;28;20163;-80
2022/11/25 05:05:11;;;;;;;15.70;4.97;;;;;;;3.67;83.56;98599.94;5010772;28;20029;-80
2022/11/25 05:07:37;;;;;;;11.25;3.60;;;;;;;3.72;84.89;98613.31;5022667;28;20740;-80
2022/11/25 05:10:03;;;;;;;8.23;3.92;;;;;;;3.61;84.37;98600.78;5029012;28;20033;-80
2022/11/25 05:12:29;;;;;;;5.88;3.45;;;;;;;3.85;84.37;98610.63;5024870;28;20045;-80
2022/11/25 05:14:55;;;;;;;7.80;3.47;;;;;;;3.69;84.09;98597.94;5009394;28;20489;-80
2022/11/25 05:17:23;;;;;;;9.52;3.40;;;;;;;3.65;84.82;98601.97;5024334;28;20033;-81
2022/11/25 05:19:49;;;;;;;5.60;2.95;;;;;;;3.58;84.84;98598.59;5025914;28;20137;-80
2022/11/25 05:22:18;;;;;;;10.15;3.47;;;;;;;3.66;84.59;98619.44;5006863;28;20135;-80
2022/11/25 05:24:43;;;;;;;3.65;2.58;;;;;;;3.60;84.79;98617.66;5022387;28;20063;-80
2022/11/25 05:27:09;;;;;;;10.73;3.33;;;;;;;3.51;85.31;98606.53;5019311;28;20088;-80
2022/11/25 05:29:35;;;;;;;6.78;3.33;;;;;;;3.58;84.76;98598.59;5022233;28;20041;-80
2022/11/25 05:32:01;;;;;;;6.65;3.05;;;;;;;3.63;84.33;98611.94;5015689;28;20498;-80
2022/11/25 05:34:26;;;;;;;8.85;3.88;;;;;;;3.62;84.79;98605.88;4989397;28;20029;-80
2022/11/25 05:36:52;;;;;;;10.38;3.33;;;;;;;3.55;84.59;98604.28;5013662;28;20036;-80
2022/11/25 05:39:17;;;;;;;9.48;3.22;;;;;;;3.60;84.42;98602.59;4998897;28;20034;-80
2022/11/25 05:41:43;;;;;;;10.30;3.35;;;;;;;3.38;84.43;98598.66;5018554;28;20033;-80
2022/11/25 05:44:08;;;;;;;9.88;5.05;;;;;;;3.17;85.33;98627.91;5009577;28;20034;-80
2022/11/25 05:46:34;;;;;;;14.77;4.53;;;;;;;3.01;84.97;98621.25;5011024;28;20056;-79
2022/11/25 05:48:59;;;;;;;10.30;4.45;;;;;;;3.18;85.24;98634.00;5023695;28;20026;-79
2022/11/25 05:51:27;;;;;;;13.80;4.55;;;;;;;3.27;85.27;98627.50;5024992;28;20041;-79
2022/11/25 05:53:52;;;;;;;7.78;4.53;;;;;;;3.27;85.55;98628.31;5029746;28;20038;-79
2022/11/25 05:56:18;;;;;;;9.40;3.95;;;;;;;3.24;85.59;98607.63;5032834;28;20091;-79
2022/11/25 05:58:43;;;;;;;8.45;4.18;;;;;;;3.40;85.42;98609.81;5009575;28;20036;-79
2022/11/25 06:01:11;;;;;;;9.07;4.30;;;;;;;3.32;85.53;98625.84;5022454;28;20461;-79
2022/11/25 06:03:37;;;;;;;13.18;5.20;;;;;;;3.13;85.54;98616.16;5029175;28;20025;-79
2022/11/25 06:06:05;;;;;;;13.20;5.03;;;;;;;3.41;85.09;98608.78;5026539;28;20029;-79
2022/11/25 06:08:30;;;;;;;13.40;4.55;;;;;;;3.50;85.06;98598.78;5007536;28;20059;-79
2022/11/25 06:10:56;;;;;;;10.30;4.32;;;;;;;3.52;84.78;98602.84;5023946;28;20139;-79
2022/11/25 06:13:21;;;;;;;9.02;4.60;;;;;;;3.55;85.42;98596.34;5030420;28;20121;-79
2022/11/25 06:15:47;;;;;;;16.35;6.00;;;;;;;3.27;85.07;98591.41;5027417;28;20038;-79
2022/11/25 06:18:15;;;;;;;9.65;4.40;;;;;;;3.58;84.97;98603.84;5011355;28;20425;-79
2022/11/25 06:20:41;;;;;;;10.00;4.43;;;;;;;3.63;84.33;98617.22;5007123;28;20039;-79
2022/11/25 06:23:07;;;;;;;9.18;3.67;;;;;;;3.65;84.00;98600.16;5031278;28;20483;-79
2022/11/25 06:25:33;;;;;;;9.30;4.60;;;;;;;3.58;85.10;98609.91;5010991;28;20500;-79
2022/11/25 06:27:59;;;;;;;7.25;3.97;;;;;;;3.55;85.27;98599.00;5025470;28;20017;-79
2022/11/25 06:30:25;;;;;;;6.97;4.18;;;;;;;3.63;85.04;98617.22;5031464;28;20051;-78
2022/11/25 06:32:52;;;;;;;11.13;4.40;;;;;;;3.83;84.78;98612.66;5033629;28;20047;-79
2022/11/25 06:35:18;;;;;;;21.25;6.60;;;;;;;3.39;85.23;98595.00;5028770;28;20033;-79
2022/11/25 06:37:43;;;;;;;10.43;4.65;;;;;;;3.68;85.23;98609.47;4996180;28;20432;-79
2022/11/25 06:40:09;;;;;;;11.10;5.32;;;;;;;3.68;84.74;98610.31;5012184;28;20095;-79
2022/11/25 06:42:37;;;;;;;14.35;4.68;;;;;;;3.68;85.13;98625.31;5027063;28;20079;-79
2022/11/25 06:45:03;;;;;;;12.10;5.30;;;;;;;3.48;85.74;98616.66;5029443;28;20041;-79
2022/11/25 06:47:28;;;;;;;13.25;4.80;;;;;;;3.55;85.79;98617.47;5023805;28;20033;-79
2022/11/25 06:49:54;;;;;;;16.13;5.22;;;;;;;3.64;85.77;98630.22;5001004;28;20124;-79
2022/11/25 06:52:19;;;;;;;15.05;5.78;;;;;;;3.69;85.00;98616.41;5023246;28;20068;-79
2022/11/25 06:54:45;;;;;;;9.88;6.00;;;;;;;3.72;85.07;98608.03;5004703;28;20037;-81
2022/11/25 06:57:11;;;;;;;6.50;4.40;;;;;;;3.78;84.94;98620.38;5023263;28;20084;-81
2022/11/25 06:59:37;;;;;;;10.93;5.53;;;;;;;3.65;85.84;98608.06;5020949;28;20056;-78
2022/11/25 07:02:03;;;;;;;19.23;6.43;;;;;;;3.72;85.70;98615.97;5006625;28;20030;-81
2022/11/25 07:04:29;;;;;;;12.02;5.57;;;;;;;3.71;85.45;98601.16;5024225;28;20037;-81
2022/11/25 07:06:55;;;;;;;18.92;5.90;;;;;;;3.70;86.37;98604.81;5024806;28;20037;-81
2022/11/25 07:09:21;;;;;;;11.88;5.65;;;;;;;3.74;86.06;98603.34;5026226;28;20021;-80
2022/11/25 07:11:47;;;;;;;13.73;6.53;;;;;;;3.89;85.68;98603.09;5022872;28;20439;-81
2022/11/25 07:14:15;;;;;;;12.73;6.28;;;;;;;3.91;85.45;98609.75;5023264;28;20041;-80
2022/11/25 07:16:43;;;;;;;10.10;5.70;;;;;;;3.82;85.90;98618.16;5008752;28;20037;-81
2022/11/25 07:19:10;;;;;;;10.30;5.55;;;;;;;3.90;85.87;98621.34;5025888;28;20108;-80
2022/11/25 07:21:35;;;;;;;17.70;5.97;;;;;;;3.72;86.70;98622.06;5017902;28;20092;-81
2022/11/25 07:24:03;;;;;;;14.00;6.20;;;;;;;3.96;86.65;98635.53;5026000;28;20033;-81
2022/11/25 07:26:32;;;;;;;9.77;6.03;;;;;;;3.91;86.66;98644.09;5027771;28;20152;-80
2022/11/25 07:29:00;;;;;;;12.20;5.60;;;;;;;3.87;87.12;98650.03;5027525;28;20108;-81
2022/11/25 07:31:29;;;;;;;9.88;5.35;;;;;;;3.67;87.98;98653.53;5025730;28;20034;-81
2022/11/25 07:33:57;;;;;;;21.45;5.93;;;;;;;3.75;87.37;98658.59;5027643;28;20115;-81
2022/11/25 07:36:23;;;;;;;15.30;5.65;;;;;;;3.85;86.72;98657.31;5035686;28;20401;-81
2022/11/25 07:38:48;;;;;;;13.65;6.18;;;;;;;4.00;86.27;98640.19;5031211;28;20477;-80
2022/11/25 07:41:22;;;;;;;14.85;6.20;;;;;;;3.98;86.55;98647.50;5008254;28;20034;-81
2022/11/25 07:43:54;;;;;;;12.30;5.35;;;;;;;4.03;86.30;98652.16;5013741;28;20051;-80
2022/11/25 07:46:26;;;;;;;15.40;6.72;;;;;;;4.09;86.61;98661.88;5028483;28;20095;-80
2022/11/25 07:48:53;;;;;;;10.80;5.80;;;;;;;4.07;86.47;98654.16;5029331;28;20029;-80
2022/11/25 07:51:28;;;;;;;8.98;4.82;;;;;;;4.19;86.26;98668.34;5026186;28;20435;-80
2022/11/25 07:53:55;;;;;;;13.37;6.07;;;;;;;3.95;87.45;98653.22;5027869;28;20425;-80
2022/11/25 07:56:21;;;;;;;13.95;5.35;;;;;;;3.86;86.94;98659.75;5024525;28;20274;-80
2022/11/25 07:58:47;;;;;;;11.10;5.78;;;;;;;3.99;87.71;98670.25;5028594;28;20083;-80
2022/11/25 08:01:14;;;;;;;13.40;5.97;;;;;;;4.03;87.65;98666.19;5025081;28;20128;-81
2022/11/25 08:03:41;;;;;;;13.38;5.45;;;;;;;4.12;87.67;98686.03;5025792;28;20036;-81
2022/11/25 08:06:13;;;;;;;11.70;6.00;;;;;;;4.15;87.97;98684.81;5028088;28;20496;-80
2022/11/25 08:08:40;;;;;;;8.00;4.95;;;;;;;4.27;87.32;98681.28;5028990;28;20025;-80
2022/11/25 08:11:12;;;;;;;14.32;5.88;;;;;;;4.27;87.16;98686.56;5028284;28;20069;-80
2022/11/25 08:13:37;;;;;;;9.57;5.45;;;;;;;4.41;86.61;98688.09;5026448;28;20082;-80
2022/11/25 08:16:04;;;;;;;7.55;4.95;;;;;;;4.20;87.72;98682.31;5028461;28;20044;-80
2022/11/25 08:18:29;;;;;;;14.02;6.25;;;;;;;4.23;87.59;98666.88;5028052;28;20088;-81
2022/11/25 08:21:07;;;;;;;9.95;6.03;;;;;;;4.44;86.49;98677.09;5029843;28;20443;-80
2022/11/25 08:23:33;;;;;;;13.55;5.88;;;;;;;4.46;87.01;98701.47;5027247;28;20033;-80
2022/11/25 08:26:07;;;;;;;9.32;5.05;;;;;;;4.41;87.08;98680.16;5024732;28;20400;-81
2022/11/25 08:28:33;;;;;;;9.77;5.22;;;;;;;4.53;87.02;98704.09;5025276;28;20025;-81
2022/11/25 08:31:11;;;;;;;7.65;4.80;;;;;;;4.53;86.92;98694.31;5027987;28;20976;-80
2022/11/25 08:33:36;;;;;;;17.52;5.47;;;;;;;4.63;87.30;98701.78;5027011;28;20189;-81
2022/11/25 08:36:03;;;;;;;12.77;5.95;;;;;;;4.61;87.29;98698.53;5030115;28;20109;-80
2022/11/25 08:38:28;;;;;;;9.95;5.97;;;;;;;4.61;87.36;98685.31;5005450;28;20121;-80
2022/11/25 08:40:54;;;;;;;15.07;5.45;;;;;;;4.62;87.75;98700.16;5010944;28;20060;-80
2022/11/25 08:43:20;;;;;;;12.75;5.13;;;;;;;4.43;87.85;98682.63;5026156;28;20037;-81
2022/11/25 08:45:49;;;;;;;8.90;5.10;;;;;;;4.57;87.71;98705.28;5023303;28;20041;-81
2022/11/25 08:48:17;;;;;;;13.75;5.43;;;;;;;4.71;87.28;98703.34;5021295;28;20033;-80
2022/11/25 08:50:46;;;;;;;10.68;5.85;;;;;;;4.46;87.55;98677.69;5029967;28;20033;-80
2022/11/25 08:53:12;;;;;;;12.57;6.10;;;;;;;4.52;87.59;98684.75;5030838;28;20163;-80
2022/11/25 08:55:38;;;;;;;9.63;5.55;;;;;;;4.55;88.13;98697.56;5011849;28;20837;-80
2022/11/25 08:58:04;;;;;;;14.80;7.00;;;;;;;4.54;88.79;98695.16;5011432;28;20124;-80
2022/11/25 09:00:29;;;;;;;11.40;5.82;;;;;;;4.60;88.86;98704.03;5026501;28;20103;-80
2022/11/25 09:02:54;;;;;;;14.10;5.55;;;;;;;4.66;88.33;98704.00;5010453;28;20033;-80
2022/11/25 09:05:20;;;;;;;11.45;4.95;;;;;;;4.69;88.09;98706.22;5008348;28;20033;-80
2022/11/25 09:07:45;;;;;;;7.72;5.28;;;;;;;4.72;88.67;98710.28;5007790;28;20030;-80
2022/11/25 09:10:14;;;;;;;10.40;5.75;;;;;;;4.59;88.99;98687.38;5021364;28;20026;-80
2022/11/25 09:12:40;;;;;;;20.85;8.77;;;;;;;4.79;87.99;98711.84;5025261;28;20106;-80
2022/11/25 09:15:06;;;;;;;11.43;4.95;;;;;;;4.72;88.25;98692.56;5022404;28;20477;-80
2022/11/25 09:17:34;;;;;;;9.65;5.47;;;;;;;4.81;88.18;98704.50;5027990;28;20041;-80
2022/11/25 09:19:59;;;;;;;12.13;7.22;;;;;;;4.75;88.40;98700.06;5011076;28;20100;-80
2022/11/25 09:22:25;;;;;;;13.90;6.78;;;;;;;4.83;89.05;98715.66;5001955;28;20064;-80
2022/11/25 09:24:50;;;;;;;10.07;4.78;;;;;;;4.83;88.61;98712.19;5023143;28;20156;-80
2022/11/25 09:27:15;;;;;;;9.48;5.50;;;;;;;4.94;88.42;98722.91;5015096;28;20034;-81
2022/11/25 09:29:41;;;;;;;11.00;4.40;;;;;;;5.03;88.77;98723.44;5026220;28;20026;-80
2022/11/25 09:32:06;;;;;;;6.13;4.82;;;;;;;4.86;88.32;98730.28;5002109;28;22175;-80
2022/11/25 09:34:31;;;;;;;10.68;5.05;;;;;;;4.85;89.57;98728.69;5023631;28;20033;-80
2022/11/25 09:36:57;;;;;;;9.70;4.72;;;;;;;4.92;89.51;98730.25;5024266;28;20148;-80
2022/11/25 09:39:26;;;;;;;11.35;6.80;;;;;;;4.80;89.42;98715.28;5004665;28;20084;-80
2022/11/25 09:48:07;;;;;;;9.82;4.18;;;;;;;5.01;88.93;98739.53;5023633;28;20117;-80
2022/11/25 09:50:54;;;;;;;4.88;3.78;;;;;;;5.02;89.04;98740.34;5026733;28;20033;-80
2022/11/25 09:53:54;;;;;;;13.90;4.13;;;;;;;5.02;89.31;98743.78;5026430;28;20018;-81
2022/11/25 09:57:02;;;;;;;10.65;5.38;;;;;;;4.88;88.69;98712.38;5013340;28;20037;-80
2022/11/25 09:59:30;;;;;;;13.10;5.28;;;;;;;5.04;89.44;98743.59;5064811;28;20028;-80
2022/11/25 10:02:09;;;;;;;11.10;6.03;;;;;;;5.09;89.41;98741.91;5040786;28;20041;-80
2022/11/25 10:04:48;;;;;;;10.15;4.43;;;;;;;5.06;89.00;98728.31;5020596;28;21886;-79
2022/11/25 10:07:20;;;;;;;12.75;4.03;;;;;;;5.15;88.94;98734.97;5023837;28;20022;-79
2022/11/25 10:09:45;;;;;;;9.95;4.38;;;;;;;5.14;88.87;98738.63;5020500;28;20022;-79
2022/11/25 10:12:22;;;;;;;13.68;5.47;;;;;;;5.26;88.71;98748.28;5024720;28;20033;-79
2022/11/25 10:14:58;;;;;;;10.85;4.22;;;;;;;5.20;88.89;98753.63;5023011;28;20036;-79
2022/11/25 10:17:37;;;;;;;13.35;5.57;;;;;;;5.23;88.45;98753.19;5024964;28;20052;-79
2022/11/25 10:20:16;;;;;;;12.27;5.53;;;;;;;5.22;89.87;98747.09;5022126;28;20103;-79
2022/11/25 10:22:44;;;;;;;5.32;4.20;;;;;;;5.39;88.77;98757.94;5021683;28;20035;-79
2022/11/25 10:25:26;;;;;;;7.03;4.28;;;;;;;5.27;88.92;98743.78;5008296;28;20786;-79
2022/11/25 10:28:07;;;;;;;13.23;4.90;;;;;;;5.48;87.41;98759.31;5024967;28;20532;-79
2022/11/25 10:30:39;;;;;;;14.95;4.20;;;;;;;5.46;87.79;98753.38;5022592;28;20056;-79
2022/11/25 10:33:44;;;;;;;10.43;4.57;;;;;;;5.55;86.87;98762.66;5001107;28;20473;-79
2022/11/25 10:36:33;;;;;;;9.38;4.20;;;;;;;5.42;90.38;98762.00;5019559;28;20052;-79
2022/11/25 10:39:11;;;;;;;9.15;5.05;;;;;;;5.44;88.27;98763.38;5012242;28;20147;-79
2022/11/25 10:41:49;;;;;;;9.20;4.75;;;;;;;5.48;88.42;98758.47;5022447;28;20478;-80
2022/11/25 10:44:25;;;;;;;16.65;6.03;;;;;;;5.32;90.99;98743.97;5024043;28;20037;-79
2022/11/25 10:47:12;;;;;;;11.50;6.03;;;;;;;5.33;90.53;98738.44;5022427;28;20493;-79
2022/11/25 10:49:46;;;;;;;8.57;4.38;;;;;;;5.42;89.31;98733.69;5027172;28;20030;-79
2022/11/25 10:52:13;;;;;;;9.35;5.15;;;;;;;5.58;88.47;98742.91;5029037;28;20044;-79
2022/11/25 10:54:39;;;;;;;10.85;4.85;;;;;;;5.65;88.86;98746.28;5027001;28;20025;-79
2022/11/25 10:57:17;;;;;;;11.13;4.80;;;;;;;5.60;88.77;98746.94;5022486;28;20037;-80
2022/11/25 10:59:54;;;;;;;13.07;4.60;;;;;;;5.60;88.88;98754.06;5024474;28;20025;-79
2022/11/25 11:02:29;;;;;;;14.13;5.07;;;;;;;5.52;90.06;98763.13;5024987;28;20079;-79
2022/11/25 11:05:07;;;;;;;12.50;5.50;;;;;;;5.72;89.60;98766.38;5029275;28;20025;-79
2022/11/25 11:07:36;;;;;;;10.93;4.72;;;;;;;5.78;88.46;98757.56;5029648;28;20056;-79
2022/11/25 11:10:22;;;;;;;31.98;15.70;;;;;;;5.54;91.32;98745.19;5031657;28;20054;-80
2022/11/25 11:13:19;;;;;;;13.10;5.07;;;;;;;5.60;90.58;98773.44;5028284;28;20029;-80
2022/11/25 11:15:46;;;;;;;17.65;4.85;;;;;;;5.81;88.25;98777.50;5020559;28;20132;-80
2022/11/25 11:18:37;;;;;;;12.80;4.40;;;;;;;5.74;88.89;98772.28;5024046;28;20033;-80
2022/11/25 11:21:06;;;;;;;10.50;4.72;;;;;;;5.73;89.59;98764.53;5022004;28;20029;-79
2022/11/25 11:23:47;;;;;;;10.02;4.38;;;;;;;5.80;89.70;98776.69;5023100;28;20062;-79
2022/11/25 11:26:23;;;;;;;11.43;4.47;;;;;;;5.94;88.72;98780.84;5012831;28;20109;-79
2022/11/25 11:29:00;;;;;;;9.02;4.10;;;;;;;5.92;89.29;98785.53;5007737;28;20453;-79
2022/11/25 11:31:35;;;;;;;21.92;6.68;;;;;;;5.80;92.41;98784.63;5022895;28;20037;-79
2022/11/25 11:34:29;;;;;;;21.58;6.60;;;;;;;5.64;95.82;98784.38;5025358;28;20025;-79
2022/11/25 11:37:09;;;;;;;18.58;7.82;;;;;;;5.47;97.93;98792.06;5024351;28;20159;-79
2022/11/25 11:39:37;;;;;;;16.27;7.10;;;;;;;5.57;95.83;98795.03;5028557;28;20119;-79
2022/11/25 11:42:40;;;;;;;13.82;5.50;;;;;;;5.62;94.66;98789.09;5026479;28;20029;-79
2022/11/25 11:45:23;;;;;;;19.30;11.43;;;;;;;5.53;98.95;98795.69;5025376;28;20030;-79
2022/11/25 11:47:54;;;;;;;17.60;6.75;;;;;;;5.46;98.30;98793.09;5028354;28;20033;-80
2022/11/25 11:50:34;;;;;;;24.52;8.48;;;;;;;5.41;96.45;98776.25;5027642;28;20033;-79
2022/11/25 11:53:30;;;;;;;24.55;8.63;;;;;;;5.64;95.40;98792.31;5006234;28;20030;-80
2022/11/25 11:56:15;;;;;;;12.52;8.02;;;;;;;5.75;94.16;98796.91;5027063;28;20037;-80